Time;durP1;ratioP1;P1;durP2;ratioP2;P2;SDS_P1;SDS_P2;PMS_P1;PMS_P2;Temp;Humidity;BMP_temperature;BMP_pressure;BME280_temperature;BME280_humidity;BME280_pressure;Samples;Min_cycle;Max_cycle;Signal;HPM_P1;HPM_P2
2023/05/18 00:00:18;;;;;;;6.40;1.80;;;11.80;46.00;;;;;;5048239;28;20056;-85
2023/05/18 00:02:48;;;;;;;11.40;2.22;;;11.80;46.00;;;;;;5043010;28;20049;-85
2023/05/18 00:05:16;;;;;;;8.73;2.10;;;11.80;46.20;;;;;;5041887;28;20044;-85
2023/05/18 00:07:44;;;;;;;5.68;1.95;;;11.80;46.20;;;;;;5041543;28;20061;-86
2023/05/18 00:10:11;;;;;;;6.80;2.03;;;11.70;46.20;;;;;;5047161;28;20056;-87
2023/05/18 00:12:39;;;;;;;8.27;2.17;;;11.70;46.20;;;;;;5042097;28;20056;-86
2023/05/18 00:15:07;;;;;;;7.70;2.17;;;11.70;46.30;;;;;;5042519;28;20056;-85
2023/05/18 00:17:35;;;;;;;11.55;2.40;;;11.70;46.40;;;;;;5042589;28;20048;-84
2023/05/18 00:20:05;;;;;;;15.23;2.80;;;11.60;46.40;;;;;;5042378;28;20049;-85
2023/05/18 00:22:32;;;;;;;5.93;1.80;;;11.60;46.50;;;;;;5042069;28;20060;-84
2023/05/18 00:24:59;;;;;;;10.13;2.10;;;11.60;46.40;;;;;;5042230;28;20052;-85
2023/05/18 00:27:27;;;;;;;9.88;2.00;;;11.60;46.50;;;;;;5042774;28;20048;-86
2023/05/18 00:29:54;;;;;;;4.70;2.00;;;11.60;46.60;;;;;;5039483;28;20053;-85
2023/05/18 00:32:21;;;;;;;13.20;2.70;;;11.50;46.50;;;;;;5041379;28;20068;-85
2023/05/18 00:34:48;;;;;;;7.38;2.00;;;11.50;46.70;;;;;;5041482;28;20044;-85
2023/05/18 00:37:17;;;;;;;6.80;1.85;;;11.50;46.70;;;;;;5043579;28;20056;-85
2023/05/18 00:39:44;;;;;;;7.07;1.83;;;11.50;46.80;;;;;;5043879;28;20057;-86
2023/05/18 00:42:11;;;;;;;9.88;2.30;;;11.40;46.80;;;;;;5043160;28;20481;-85
2023/05/18 00:44:39;;;;;;;8.27;2.20;;;11.40;46.90;;;;;;5042520;28;20064;-85
2023/05/18 00:47:07;;;;;;;6.22;2.00;;;11.40;46.90;;;;;;5040589;28;20048;-86
2023/05/18 00:49:34;;;;;;;8.27;2.38;;;11.40;47.00;;;;;;5038831;28;20057;-85
2023/05/18 00:52:03;;;;;;;7.25;1.70;;;11.40;47.10;;;;;;5041721;28;20505;-84
2023/05/18 00:54:33;;;;;;;5.47;1.70;;;11.40;47.10;;;;;;5041824;28;20044;-85
2023/05/18 00:57:01;;;;;;;7.80;2.38;;;11.30;47.10;;;;;;5042251;28;20493;-85
2023/05/18 00:59:28;;;;;;;8.45;2.30;;;11.30;47.10;;;;;;5041409;28;20072;-85
2023/05/18 01:01:56;;;;;;;4.88;1.73;;;11.30;47.10;;;;;;5041309;28;20056;-89
2023/05/18 01:04:24;;;;;;;8.48;2.00;;;11.20;47.10;;;;;;5064783;23;20045;-46
2023/05/18 01:06:55;;;;;;;9.40;2.03;;;11.20;47.10;;;;;;5043625;28;20049;-47
2023/05/18 01:09:23;;;;;;;7.88;1.95;;;11.20;47.30;;;;;;5044948;28;20049;-46
2023/05/18 01:12:04;;;;;;;3.88;1.60;;;11.20;47.30;;;;;;5042704;28;20059;-45
2023/05/18 01:14:37;;;;;;;4.72;1.65;;;11.20;47.50;;;;;;5043344;28;20411;-44
2023/05/18 01:17:11;;;;;;;8.52;2.60;;;11.20;48.00;;;;;;5042535;28;20052;-44
2023/05/18 01:20:11;;;;;;;8.57;2.47;;;11.10;47.60;;;;;;5041863;28;21759;-45
2023/05/18 01:22:52;;;;;;;10.65;2.58;;;11.10;47.70;;;;;;5044481;28;20060;-46
2023/05/18 01:25:30;;;;;;;9.30;3.17;;;11.10;47.80;;;;;;5044689;28;20056;-43
2023/05/18 01:28:04;;;;;;;6.75;2.47;;;11.00;47.70;;;;;;5043469;28;20060;-45
2023/05/18 01:30:33;;;;;;;6.38;1.90;;;11.00;47.70;;;;;;5040456;28;20049;-47
2023/05/18 01:33:00;;;;;;;7.18;1.88;;;11.00;47.70;;;;;;5024370;28;20056;-44
2023/05/18 01:35:28;;;;;;;9.82;2.35;;;11.00;47.70;;;;;;5042582;28;20048;-46
2023/05/18 01:37:55;;;;;;;7.25;2.33;;;10.90;47.80;;;;;;5043918;28;20053;-44
2023/05/18 01:40:23;;;;;;;8.23;2.05;;;10.90;47.90;;;;;;5042160;28;20053;-47
2023/05/18 01:42:56;;;;;;;10.63;2.28;;;10.90;47.90;;;;;;5044040;28;20056;-45
2023/05/18 01:45:28;;;;;;;9.35;2.00;;;10.80;48.00;;;;;;5041319;28;20056;-43
2023/05/18 01:47:59;;;;;;;5.40;1.70;;;10.80;48.20;;;;;;5041136;28;20496;-48
2023/05/18 01:50:36;;;;;;;9.90;2.55;;;10.80;48.10;;;;;;5041785;28;20056;-44
2023/05/18 01:53:08;;;;;;;7.32;2.20;;;10.80;48.20;;;;;;5042870;28;20144;-48
2023/05/18 01:55:37;;;;;;;10.23;2.53;;;10.80;48.20;;;;;;5041826;28;20056;-46
2023/05/18 01:58:06;;;;;;;5.50;2.05;;;10.70;48.20;;;;;;5040717;28;20419;-44
2023/05/18 02:00:35;;;;;;;7.10;2.13;;;10.70;48.20;;;;;;5040979;28;20839;-45
2023/05/18 02:03:03;;;;;;;9.05;2.03;;;10.70;48.30;;;;;;5040869;28;20052;-45
2023/05/18 02:05:30;;;;;;;5.75;1.90;;;10.70;48.30;;;;;;5042588;28;20426;-46
2023/05/18 02:07:57;;;;;;;10.93;1.92;;;10.70;48.40;;;;;;5040710;28;20049;-44
2023/05/18 02:10:25;;;;;;;7.88;2.10;;;10.60;48.40;;;;;;5042204;28;20401;-44
2023/05/18 02:12:52;;;;;;;7.57;1.70;;;10.60;48.50;;;;;;5042278;28;20056;-43
2023/05/18 02:15:20;;;;;;;11.15;3.83;;;10.60;48.50;;;;;;5040778;28;20049;-45
2023/05/18 02:17:48;;;;;;;6.93;2.22;;;10.60;48.70;;;;;;5040792;28;20047;-46
2023/05/18 02:20:17;;;;;;;6.75;2.13;;;10.60;48.70;;;;;;5041241;28;20067;-48
2023/05/18 02:22:45;;;;;;;6.18;1.92;;;10.50;48.70;;;;;;5042651;28;20060;-43
2023/05/18 02:25:12;;;;;;;9.18;1.90;;;10.50;48.70;;;;;;5040424;28;20049;-45
2023/05/18 02:27:39;;;;;;;6.00;1.70;;;10.50;48.70;;;;;;5042085;28;20057;-45
2023/05/18 02:30:08;;;;;;;5.68;1.98;;;10.50;48.80;;;;;;5041949;28;20056;-48
2023/05/18 02:32:37;;;;;;;6.93;2.20;;;10.50;48.80;;;;;;5039216;28;20516;-44
2023/05/18 02:35:07;;;;;;;10.55;2.35;;;10.40;48.80;;;;;;5044661;28;20562;-45
2023/05/18 02:37:38;;;;;;;10.07;2.60;;;10.40;48.80;;;;;;5042688;28;20416;-45
2023/05/18 02:40:09;;;;;;;6.13;1.98;;;10.40;48.80;;;;;;5042664;28;20060;-46
2023/05/18 02:42:36;;;;;;;6.53;2.15;;;10.40;48.90;;;;;;5044083;28;20059;-45
2023/05/18 02:45:04;;;;;;;9.07;2.13;;;10.40;48.90;;;;;;5045551;28;20636;-44
2023/05/18 02:47:32;;;;;;;9.90;2.40;;;10.30;48.90;;;;;;5043840;28;20049;-45
2023/05/18 02:49:59;;;;;;;6.65;2.03;;;10.30;49.00;;;;;;5046538;28;20622;-46
2023/05/18 02:52:28;;;;;;;5.43;1.80;;;10.30;49.10;;;;;;5048488;28;20488;-46
2023/05/18 02:54:55;;;;;;;9.88;2.22;;;10.30;49.10;;;;;;5043319;28;20049;-47
2023/05/18 02:57:22;;;;;;;11.30;2.63;;;10.30;49.10;;;;;;5045534;28;20053;-43
2023/05/18 02:59:49;;;;;;;6.22;2.10;;;10.30;49.20;;;;;;5044530;28;20057;-50
2023/05/18 03:02:16;;;;;;;8.77;2.30;;;10.20;49.20;;;;;;5044469;28;20056;-45
2023/05/18 03:04:46;;;;;;;11.25;2.17;;;10.20;49.20;;;;;;5044349;28;20060;-47
2023/05/18 03:07:13;;;;;;;6.35;1.80;;;10.20;49.20;;;;;;5047207;28;20135;-44
2023/05/18 03:09:41;;;;;;;11.88;2.50;;;10.20;49.20;;;;;;5047101;28;20515;-43
2023/05/18 03:12:09;;;;;;;6.82;2.30;;;10.20;49.30;;;;;;5045111;28;20053;-46
2023/05/18 03:14:36;;;;;;;4.90;1.65;;;10.10;49.30;;;;;;5044971;28;20064;-46
2023/05/18 03:17:04;;;;;;;8.65;1.85;;;10.10;49.20;;;;;;5045580;28;20057;-45
2023/05/18 03:19:33;;;;;;;8.05;2.35;;;10.10;49.30;;;;;;5046114;28;20408;-43
2023/05/18 03:22:01;;;;;;;5.63;2.03;;;10.10;49.40;;;;;;5047083;28;20063;-50
2023/05/18 03:24:29;;;;;;;8.15;2.10;;;10.10;49.50;;;;;;5046754;28;20053;-44
2023/05/18 03:26:59;;;;;;;7.85;2.30;;;10.00;49.50;;;;;;5045005;28;20057;-45
2023/05/18 03:29:26;;;;;;;10.48;2.42;;;10.00;49.70;;;;;;5044495;28;20053;-43
2023/05/18 03:31:54;;;;;;;8.88;2.63;;;10.00;49.70;;;;;;5043359;28;20041;-45
2023/05/18 03:34:21;;;;;;;6.57;1.80;;;10.00;49.60;;;;;;5045899;28;20055;-46
2023/05/18 03:36:51;;;;;;;5.50;1.80;;;10.00;49.60;;;;;;5046169;28;20055;-48
2023/05/18 03:39:18;;;;;;;5.72;1.60;;;9.90;49.60;;;;;;5046310;28;20053;-43
2023/05/18 03:41:45;;;;;;;6.25;1.83;;;9.90;49.70;;;;;;5045997;28;20079;-45
2023/05/18 03:44:14;;;;;;;6.53;1.92;;;9.90;49.70;;;;;;5045383;28;20060;-46
2023/05/18 03:46:42;;;;;;;6.95;2.05;;;9.90;49.70;;;;;;5045241;28;20408;-46
2023/05/18 03:49:09;;;;;;;6.97;1.77;;;9.90;49.80;;;;;;5045895;28;20060;-44
2023/05/18 03:51:36;;;;;;;5.75;1.83;;;9.90;49.90;;;;;;5045279;28;20064;-44
2023/05/18 03:54:04;;;;;;;11.05;2.33;;;9.80;49.80;;;;;;5044679;28;20516;-43
2023/05/18 03:56:31;;;;;;;7.78;2.00;;;9.80;50.00;;;;;;5044813;28;20057;-45
2023/05/18 03:58:58;;;;;;;7.28;1.80;;;9.80;50.00;;;;;;5046004;28;20453;-44
2023/05/18 04:01:29;;;;;;;5.88;1.98;;;9.80;50.10;;;;;;5043718;28;20064;-45
2023/05/18 04:03:56;;;;;;;5.88;1.90;;;9.90;50.20;;;;;;5044707;28;20053;-44
2023/05/18 04:06:24;;;;;;;6.93;1.80;;;9.80;50.20;;;;;;5042474;28;20045;-44
2023/05/18 04:08:52;;;;;;;7.13;1.83;;;9.90;50.30;;;;;;5025245;28;20061;-44
2023/05/18 04:11:20;;;;;;;7.07;1.63;;;9.80;50.30;;;;;;5026195;28;20064;-45
2023/05/18 04:13:48;;;;;;;7.88;1.95;;;9.90;50.30;;;;;;5026190;28;20056;-45
2023/05/18 04:16:15;;;;;;;6.05;2.08;;;9.90;50.40;;;;;;5024763;28;20053;-43
2023/05/18 04:18:44;;;;;;;21.17;8.32;;;9.90;50.40;;;;;;5026820;28;20053;-45
2023/05/18 04:21:11;;;;;;;40.85;14.10;;;9.90;50.40;;;;;;5024836;28;20064;-44
2023/05/18 04:23:39;;;;;;;18.35;7.97;;;9.90;50.30;;;;;;5025128;28;20076;-44
2023/05/18 04:26:07;;;;;;;12.90;4.53;;;9.80;50.30;;;;;;5025563;28;20489;-48
2023/05/18 04:28:36;;;;;;;8.85;2.60;;;9.90;50.40;;;;;;5024357;28;20057;-45
2023/05/18 04:31:03;;;;;;;12.27;2.55;;;9.90;50.40;;;;;;5026805;28;20053;-43
2023/05/18 04:33:31;;;;;;;7.90;2.05;;;9.90;50.50;;;;;;5027491;28;20053;-47
2023/05/18 04:36:03;;;;;;;4.93;1.67;;;9.90;50.60;;;;;;5027384;28;20062;-44
2023/05/18 04:38:31;;;;;;;4.82;1.60;;;9.90;50.50;;;;;;5026030;28;20060;-44
2023/05/18 04:40:59;;;;;;;4.45;2.10;;;9.90;50.40;;;;;;5025553;28;20057;-45
2023/05/18 04:43:27;;;;;;;6.93;1.90;;;9.90;50.50;;;;;;5026633;28;20056;-46
2023/05/18 04:45:54;;;;;;;3.45;1.63;;;9.90;50.50;;;;;;5024567;28;20059;-46
2023/05/18 04:48:22;;;;;;;8.60;2.00;;;10.00;50.60;;;;;;5025271;28;20053;-46
2023/05/18 04:50:53;;;;;;;6.05;1.85;;;10.00;50.80;;;;;;5026412;28;20057;-44
2023/05/18 04:53:21;;;;;;;8.10;2.00;;;10.00;50.70;;;;;;5025434;28;20531;-47
2023/05/18 04:55:49;;;;;;;3.53;1.98;;;10.00;50.80;;;;;;5024781;28;20060;-47
2023/05/18 04:58:17;;;;;;;6.07;2.13;;;10.00;50.80;;;;;;5023718;28;20057;-44
2023/05/18 05:00:44;;;;;;;6.45;1.67;;;10.00;50.80;;;;;;5021587;28;20049;-48
2023/05/18 05:03:11;;;;;;;9.70;2.03;;;10.00;50.80;;;;;;5024449;28;20057;-45
2023/05/18 05:05:39;;;;;;;20.73;6.55;;;10.00;50.80;;;;;;5021486;28;20128;-46
2023/05/18 05:08:06;;;;;;;13.00;3.88;;;10.10;50.80;;;;;;5024742;28;20046;-45
2023/05/18 05:10:35;;;;;;;7.35;2.67;;;10.10;50.80;;;;;;5024634;28;20064;-44
2023/05/18 05:13:02;;;;;;;8.65;2.35;;;10.10;50.80;;;;;;5025592;28;20057;-46
2023/05/18 05:15:30;;;;;;;5.50;1.98;;;10.10;50.70;;;;;;5022946;28;20063;-45
2023/05/18 05:17:57;;;;;;;5.57;1.73;;;10.10;50.80;;;;;;5023488;28;20054;-49
2023/05/18 05:20:25;;;;;;;5.32;1.80;;;10.20;50.90;;;;;;5023613;28;20053;-45
2023/05/18 05:22:52;;;;;;;5.82;1.90;;;10.20;50.90;;;;;;5024258;28;20069;-44
2023/05/18 05:25:20;;;;;;;5.68;1.75;;;10.20;50.80;;;;;;5022738;28;20532;-46
2023/05/18 05:27:52;;;;;;;5.93;1.92;;;10.20;50.90;;;;;;5022592;28;20064;-46
2023/05/18 05:30:20;;;;;;;6.80;2.03;;;10.30;50.90;;;;;;5022362;28;20053;-45
2023/05/18 05:32:47;;;;;;;7.70;2.13;;;10.30;50.90;;;;;;5023618;28;20057;-49
2023/05/18 05:35:14;;;;;;;5.88;2.00;;;10.30;50.90;;;;;;5023218;28;20057;-48
2023/05/18 05:37:42;;;;;;;7.93;1.90;;;10.30;50.90;;;;;;5023031;28;20057;-46
2023/05/18 05:40:10;;;;;;;6.63;2.20;;;10.40;50.90;;;;;;5024222;28;20057;-44
2023/05/18 05:42:37;;;;;;;8.65;2.05;;;10.40;50.90;;;;;;5023993;28;20053;-43
2023/05/18 05:45:07;;;;;;;7.28;1.77;;;10.50;51.00;;;;;;5022215;28;20054;-45
2023/05/18 05:47:34;;;;;;;5.55;2.10;;;10.50;51.00;;;;;;5022267;28;20044;-44
2023/05/18 05:50:02;;;;;;;5.75;1.73;;;10.50;50.90;;;;;;5023572;28;20061;-46
2023/05/18 05:52:29;;;;;;;5.90;1.67;;;10.60;51.00;;;;;;5023160;28;20073;-44
2023/05/18 05:54:56;;;;;;;9.32;2.28;;;10.60;50.90;;;;;;5022194;28;20417;-45
2023/05/18 05:57:23;;;;;;;6.40;1.98;;;10.70;50.90;;;;;;5021917;28;20048;-48
2023/05/18 05:59:51;;;;;;;5.63;2.10;;;10.70;50.90;;;;;;5022916;28;20057;-48
2023/05/18 06:02:20;;;;;;;7.28;1.90;;;10.80;51.10;;;;;;5021144;28;20076;-46
2023/05/18 06:04:47;;;;;;;8.73;2.22;;;10.80;51.00;;;;;;5023372;28;20054;-46
2023/05/18 06:07:14;;;;;;;3.25;1.55;;;10.90;51.00;;;;;;5023468;28;20481;-44
2023/05/18 06:09:42;;;;;;;6.70;2.05;;;10.90;51.00;;;;;;5023615;28;20058;-50
2023/05/18 06:12:09;;;;;;;13.32;2.35;;;11.00;51.00;;;;;;5021773;28;20486;-46
2023/05/18 06:14:37;;;;;;;21.65;3.88;;;11.10;51.10;;;;;;5022419;28;20045;-45
2023/05/18 06:17:04;;;;;;;9.30;2.30;;;11.10;51.00;;;;;;5021105;28;20097;-44
2023/05/18 06:19:33;;;;;;;9.43;2.30;;;11.20;50.90;;;;;;5022427;28;20055;-47
2023/05/18 06:22:00;;;;;;;10.00;2.13;;;11.20;51.00;;;;;;5023093;28;20053;-44
2023/05/18 06:24:27;;;;;;;9.98;1.90;;;11.30;51.10;;;;;;5022773;28;20053;-45
2023/05/18 06:26:54;;;;;;;12.82;2.85;;;11.30;51.10;;;;;;5022955;28;20076;-42
2023/05/18 06:29:22;;;;;;;11.13;2.80;;;11.40;51.00;;;;;;5023280;28;20058;-41
2023/05/18 06:31:49;;;;;;;10.18;2.53;;;11.40;50.50;;;;;;5021259;28;20056;-43
2023/05/18 06:34:16;;;;;;;6.65;2.83;;;11.50;50.10;;;;;;5022788;28;20060;-39
2023/05/18 06:36:45;;;;;;;14.35;2.63;;;11.50;50.10;;;;;;5022546;28;20497;-38
2023/05/18 06:39:13;;;;;;;7.60;2.30;;;11.50;50.00;;;;;;5023134;28;20060;-43
2023/05/18 06:41:40;;;;;;;8.00;2.53;;;11.50;50.00;;;;;;5022488;28;20057;-40
2023/05/18 06:44:07;;;;;;;11.63;2.33;;;11.50;50.20;;;;;;5022519;28;20535;-39
2023/05/18 06:46:35;;;;;;;9.05;2.25;;;11.50;50.30;;;;;;5020981;28;20176;-41
2023/05/18 06:49:03;;;;;;;9.95;2.00;;;11.50;50.50;;;;;;5020502;28;20504;-40
2023/05/18 06:51:31;;;;;;;9.43;2.30;;;11.60;50.50;;;;;;5022955;28;20417;-42
2023/05/18 06:53:59;;;;;;;8.45;2.38;;;11.60;50.70;;;;;;5022465;28;20061;-41
2023/05/18 06:56:26;;;;;;;9.38;2.10;;;11.70;50.70;;;;;;5021903;28;20053;-43
2023/05/18 06:58:54;;;;;;;9.82;2.92;;;11.80;50.50;;;;;;5023539;28;20057;-41
2023/05/18 07:01:21;;;;;;;11.25;2.30;;;11.90;50.40;;;;;;5021479;28;20060;-44
2023/05/18 07:03:48;;;;;;;8.93;2.20;;;11.90;49.90;;;;;;5021743;28;20045;-40
2023/05/18 07:06:15;;;;;;;13.00;2.78;;;11.90;49.90;;;;;;5022505;28;20072;-38
2023/05/18 07:08:44;;;;;;;8.68;2.28;;;12.00;49.90;;;;;;5022352;28;20060;-40
2023/05/18 07:11:13;;;;;;;10.25;2.42;;;12.00;50.30;;;;;;5023200;28;20057;-42
2023/05/18 07:13:40;;;;;;;7.10;1.98;;;12.10;50.00;;;;;;5022073;28;20057;-38
2023/05/18 07:16:08;;;;;;;6.43;2.05;;;12.20;50.30;;;;;;5022380;28;20076;-43
2023/05/18 07:18:35;;;;;;;10.45;2.50;;;12.20;50.30;;;;;;5022608;28;20065;-39
2023/05/18 07:21:02;;;;;;;9.38;2.20;;;12.30;50.30;;;;;;5023731;28;20061;-43
2023/05/18 07:23:29;;;;;;;10.68;3.22;;;12.30;49.60;;;;;;5023028;28;20053;-41
2023/05/18 07:25:57;;;;;;;11.13;2.17;;;12.40;49.40;;;;;;5022984;28;20045;-40
2023/05/18 07:28:25;;;;;;;10.23;2.47;;;12.40;49.30;;;;;;5025920;28;20072;-44
2023/05/18 07:30:53;;;;;;;12.68;3.22;;;12.40;49.10;;;;;;5025174;28;20056;-44
2023/05/18 07:33:20;;;;;;;10.85;2.33;;;12.40;48.80;;;;;;5026329;28;20050;-44
2023/05/18 07:35:47;;;;;;;10.82;2.65;;;12.50;49.10;;;;;;5026295;28;20072;-44
2023/05/18 07:38:14;;;;;;;8.77;2.63;;;12.50;49.00;;;;;;5026609;28;20052;-39
2023/05/18 07:40:42;;;;;;;8.27;2.38;;;12.50;49.00;;;;;;5024471;28;20057;-44
2023/05/18 07:43:09;;;;;;;11.85;2.50;;;12.50;48.80;;;;;;5025798;28;20060;-39
2023/05/18 07:45:37;;;;;;;11.63;2.78;;;12.60;49.20;;;;;;5023387;28;20064;-40
2023/05/18 07:48:06;;;;;;;15.63;3.03;;;12.60;48.80;;;;;;5025406;28;20517;-39
2023/05/18 07:50:34;;;;;;;10.98;2.58;;;12.60;49.00;;;;;;5025728;28;20064;-38
2023/05/18 07:53:01;;;;;;;9.48;2.60;;;12.70;49.30;;;;;;5024439;28;20049;-40
2023/05/18 07:55:29;;;;;;;15.35;2.65;;;12.70;49.50;;;;;;5023496;28;20060;-42
2023/05/18 07:57:56;;;;;;;17.30;2.90;;;12.70;49.40;;;;;;5024753;28;20053;-39
2023/05/18 08:00:23;;;;;;;16.10;3.28;;;12.80;49.30;;;;;;5021566;28;20061;-42
2023/05/18 08:02:52;;;;;;;11.13;2.45;;;12.90;49.30;;;;;;5023896;28;20057;-41
2023/05/18 08:05:21;;;;;;;15.85;2.85;;;12.90;49.40;;;;;;5022382;28;20519;-43
2023/05/18 08:07:48;;;;;;;9.30;2.28;;;13.00;49.70;;;;;;5006478;28;20417;-42
2023/05/18 08:10:15;;;;;;;6.65;2.28;;;13.10;49.60;;;;;;5023456;28;20049;-41
2023/05/18 08:12:43;;;;;;;9.80;1.90;;;13.10;49.20;;;;;;5024056;28;20052;-39
2023/05/18 08:15:11;;;;;;;13.02;2.95;;;13.20;49.30;;;;;;5022627;28;20049;-43
2023/05/18 08:17:38;;;;;;;10.70;2.70;;;13.20;49.30;;;;;;5023362;28;20082;-39
2023/05/18 08:20:09;;;;;;;9.35;2.47;;;13.30;48.50;;;;;;5022431;28;20049;-39
2023/05/18 08:22:36;;;;;;;14.15;2.90;;;13.40;48.60;;;;;;5021833;28;20049;-39
2023/05/18 08:25:04;;;;;;;9.55;2.42;;;13.40;48.30;;;;;;5024675;28;20049;-38
2023/05/18 08:27:31;;;;;;;16.23;2.95;;;13.50;48.40;;;;;;5023512;28;20496;-41
2023/05/18 08:29:58;;;;;;;8.73;2.15;;;13.60;48.20;;;;;;5025476;28;20049;-43
2023/05/18 08:32:26;;;;;;;10.25;2.92;;;13.60;48.10;;;;;;5023235;28;20412;-38
2023/05/18 08:34:53;;;;;;;9.32;2.75;;;13.70;48.20;;;;;;5023685;28;20057;-45
2023/05/18 08:37:27;;;;;;;18.50;6.22;;;13.80;48.40;;;;;;5026009;28;20053;-39
2023/05/18 08:39:55;;;;;;;11.02;3.03;;;13.80;48.50;;;;;;5022386;28;20095;-41
2023/05/18 08:42:28;;;;;;;8.70;2.40;;;13.90;48.70;;;;;;5024812;28;20057;-44
2023/05/18 08:45:02;;;;;;;9.80;2.03;;;14.00;48.40;;;;;;5024428;28;20056;-39
2023/05/18 08:47:31;;;;;;;18.45;2.78;;;14.10;48.50;;;;;;5022402;28;20053;-44
2023/05/18 08:50:02;;;;;;;7.72;2.15;;;14.10;47.50;;;;;;5024234;28;20050;-39
2023/05/18 08:52:36;;;;;;;13.63;2.47;;;14.20;47.10;;;;;;5023451;28;20057;-40
2023/05/18 08:55:05;;;;;;;;;;;14.30;48.10;;;;;;5024375;28;20415;-39
2023/05/18 08:57:34;;;;;;;11.85;2.50;;;14.40;47.90;;;;;;5023789;28;20364;-41
2023/05/18 09:00:04;;;;;;;6.70;1.80;;;14.40;46.20;;;;;;5024713;28;20052;-44
2023/05/18 09:02:33;;;;;;;15.07;2.63;;;14.50;46.60;;;;;;5022987;28;20053;-43
2023/05/18 09:05:02;;;;;;;8.77;1.58;;;14.50;45.80;;;;;;5024297;28;20144;-44
2023/05/18 09:07:32;;;;;;;12.07;2.22;;;14.60;46.20;;;;;;5023480;28;20049;-42
2023/05/18 09:10:00;;;;;;;10.60;2.45;;;14.60;46.30;;;;;;5023002;28;20056;-42
2023/05/18 09:12:28;;;;;;;6.68;1.95;;;14.70;45.20;;;;;;5022968;28;21851;-41
2023/05/18 09:14:56;;;;;;;5.57;2.20;;;14.70;45.80;;;;;;5022365;28;20057;-42
2023/05/18 09:17:23;;;;;;;9.02;2.40;;;14.80;46.20;;;;;;5022569;28;20056;-43
2023/05/18 09:19:51;;;;;;;8.88;2.05;;;14.90;46.30;;;;;;5024187;28;20049;-39
2023/05/18 09:22:18;;;;;;;8.40;1.95;;;15.00;46.20;;;;;;5024326;28;20082;-41
2023/05/18 09:24:48;;;;;;;7.57;1.60;;;15.10;45.90;;;;;;5022982;28;20057;-40
2023/05/18 09:27:16;;;;;;;7.07;2.13;;;15.20;45.70;;;;;;5023851;28;20057;-39
2023/05/18 09:29:53;;;;;;;10.80;2.13;;;15.20;45.50;;;;;;5022706;28;20057;-39
2023/05/18 09:32:20;;;;;;;8.07;1.92;;;15.30;45.30;;;;;;5021254;28;20053;-40
2023/05/18 09:34:48;;;;;;;5.95;1.77;;;15.40;45.60;;;;;;5023269;28;20053;-43
2023/05/18 09:37:17;;;;;;;8.98;2.13;;;15.50;45.70;;;;;;5022760;28;20050;-38
2023/05/18 09:39:44;;;;;;;6.43;1.90;;;15.60;45.50;;;;;;5023191;28;20057;-40
2023/05/18 09:42:12;;;;;;;7.63;1.90;;;15.70;45.20;;;;;;5022333;28;20584;-38
2023/05/18 09:44:41;;;;;;;14.25;2.53;;;15.70;44.80;;;;;;5022369;28;20179;-44
2023/05/18 09:47:09;;;;;;;11.00;2.55;;;15.80;44.20;;;;;;5021989;28;20064;-41
2023/05/18 09:49:37;;;;;;;15.95;2.63;;;15.80;43.90;;;;;;5023519;28;20060;-41
2023/05/18 09:52:09;;;;;;;10.85;2.20;;;15.90;42.60;;;;;;5023009;28;20059;-42
2023/05/18 09:54:37;;;;;;;8.23;2.20;;;15.90;42.80;;;;;;5023127;28;20065;-43
2023/05/18 09:57:05;;;;;;;7.10;1.70;;;15.90;42.80;;;;;;5023414;28;20062;-41
2023/05/18 09:59:36;;;;;;;9.90;2.20;;;15.90;42.40;;;;;;5022271;28;20049;-38
2023/05/18 10:02:07;;;;;;;5.85;1.85;;;15.90;41.40;;;;;;5022537;28;20064;-40
2023/05/18 10:04:41;;;;;;;6.97;1.98;;;16.00;42.00;;;;;;5022375;28;20058;-43
2023/05/18 10:07:12;;;;;;;;;;;16.00;42.50;;;;;;5021367;28;20053;-44
2023/05/18 10:09:40;;;;;;;9.30;2.13;;;16.00;43.10;;;;;;5022902;28;19928;-39
2023/05/18 10:12:12;;;;;;;9.27;1.60;;;16.10;41.40;;;;;;5020901;28;20060;-40
2023/05/18 10:14:42;;;;;;;14.70;3.10;;;16.10;41.00;;;;;;5022635;28;20049;-46
2023/05/18 10:17:11;;;;;;;8.65;1.98;;;16.10;40.60;;;;;;5021950;28;20056;-42
2023/05/18 10:19:40;;;;;;;9.45;2.17;;;16.10;41.20;;;;;;5021283;28;20045;-41
2023/05/18 10:22:09;;;;;;;13.80;2.60;;;16.10;41.50;;;;;;5021618;28;20400;-39
2023/05/18 10:24:41;;;;;;;8.80;2.25;;;16.20;40.90;;;;;;5021497;28;20057;-40
2023/05/18 10:27:10;;;;;;;9.02;1.90;;;16.20;40.40;;;;;;5023450;28;20053;-44
2023/05/18 10:29:38;;;;;;;9.48;2.45;;;16.20;41.20;;;;;;5022299;28;20083;-38
2023/05/18 10:32:11;;;;;;;8.98;2.15;;;16.30;41.20;;;;;;5020817;28;21380;-42
2023/05/18 10:34:40;;;;;;;11.83;2.20;;;16.30;40.80;;;;;;5023594;28;20054;-41
2023/05/18 10:37:08;;;;;;;8.02;2.10;;;16.30;40.00;;;;;;5023798;28;20510;-43
2023/05/18 10:39:36;;;;;;;11.55;2.35;;;16.40;39.50;;;;;;5022387;28;20931;-39
2023/05/18 10:42:07;;;;;;;11.02;2.03;;;16.40;39.10;;;;;;5020675;28;20404;-41
2023/05/18 10:44:36;;;;;;;7.72;2.25;;;16.40;39.70;;;;;;5021097;28;20045;-40
2023/05/18 10:47:07;;;;;;;8.27;1.80;;;16.50;40.40;;;;;;5020776;28;20053;-41
2023/05/18 10:49:35;;;;;;;6.78;1.73;;;16.50;40.80;;;;;;5022411;28;20049;-42
2023/05/18 10:52:03;;;;;;;7.07;2.05;;;16.60;40.70;;;;;;5022260;28;20050;-40
2023/05/18 10:54:30;;;;;;;7.10;1.73;;;16.60;41.00;;;;;;5022461;28;20061;-38
2023/05/18 10:56:58;;;;;;;10.30;2.08;;;16.70;41.00;;;;;;5021824;28;20061;-41
2023/05/18 10:59:26;;;;;;;7.50;2.03;;;16.70;39.60;;;;;;5022763;28;20054;-38
2023/05/18 11:01:55;;;;;;;7.47;1.52;;;16.70;40.00;;;;;;5021313;28;20498;-39
2023/05/18 11:04:25;;;;;;;6.03;2.25;;;16.80;40.60;;;;;;5026941;28;20057;-43
2023/05/18 11:06:58;;;;;;;9.07;2.20;;;16.80;40.00;;;;;;5025967;28;20453;-40
2023/05/18 11:09:26;;;;;;;8.55;2.15;;;16.80;39.70;;;;;;5026027;28;20057;-38
2023/05/18 11:11:56;;;;;;;9.02;1.85;;;16.90;39.40;;;;;;5025109;28;20058;-44
2023/05/18 11:14:27;;;;;;;6.68;2.03;;;16.90;39.80;;;;;;5023953;28;20401;-42
2023/05/18 11:17:14;;;;;;;7.63;1.60;;;17.00;39.80;;;;;;5026447;28;20058;-42
2023/05/18 11:20:13;;;;;;;5.63;1.75;;;17.00;40.10;;;;;;5025261;28;22068;-44
2023/05/18 11:22:45;;;;;;;6.90;1.65;;;17.00;39.10;;;;;;5047372;28;20067;-39
2023/05/18 11:25:37;;;;;;;7.25;1.92;;;17.10;39.70;;;;;;5047808;28;20950;-42
2023/05/18 11:28:06;;;;;;;4.93;1.70;;;17.10;40.50;;;;;;5043949;28;20056;-41
2023/05/18 11:30:49;;;;;;;9.50;2.10;;;17.20;40.80;;;;;;5045757;28;20052;-40
2023/05/18 11:33:23;;;;;;;5.88;1.50;;;17.30;40.60;;;;;;5046552;28;20056;-40
2023/05/18 11:36:07;;;;;;;5.28;1.55;;;17.30;40.50;;;;;;5044686;28;20640;-42
2023/05/18 11:38:52;;;;;;;5.78;1.50;;;17.40;40.60;;;;;;5043653;28;20056;-40
2023/05/18 11:41:34;;;;;;;10.15;1.90;;;17.40;40.40;;;;;;5044759;28;20053;-44
2023/05/18 11:44:20;;;;;;;4.53;1.33;;;17.50;40.60;;;;;;5045446;28;20053;-41
2023/05/18 11:47:01;;;;;;;8.07;2.38;;;17.50;40.40;;;;;;5043535;28;20412;-42
2023/05/18 11:49:30;;;;;;;6.90;1.80;;;17.60;40.00;;;;;;5044840;28;20053;-40
2023/05/18 11:52:06;;;;;;;8.90;1.88;;;17.60;40.10;;;;;;5046310;28;20416;-41
2023/05/18 11:54:42;;;;;;;8.23;1.95;;;17.70;40.00;;;;;;5045786;28;20053;-41
2023/05/18 11:57:11;;;;;;;5.10;1.65;;;17.80;40.20;;;;;;5044946;28;20489;-40
2023/05/18 11:59:40;;;;;;;5.68;2.20;;;17.80;39.90;;;;;;5042849;28;20074;-42
2023/05/18 12:02:10;;;;;;;6.25;1.77;;;17.90;40.00;;;;;;5042338;28;20503;-43
2023/05/18 12:04:43;;;;;;;7.03;1.75;;;17.90;39.50;;;;;;5043538;28;20067;-41
2023/05/18 12:07:12;;;;;;;9.30;1.80;;;18.00;39.30;;;;;;5043192;28;20053;-42
2023/05/18 12:09:43;;;;;;;10.77;2.25;;;18.00;39.30;;;;;;5044731;28;20060;-45
2023/05/18 12:12:11;;;;;;;5.28;1.50;;;18.00;39.30;;;;;;5042705;28;20049;-39
2023/05/18 12:14:42;;;;;;;10.23;2.58;;;18.00;39.00;;;;;;5045078;28;20487;-40
2023/05/18 12:17:10;;;;;;;8.57;2.10;;;18.00;37.10;;;;;;5043079;28;20416;-39
2023/05/18 12:19:44;;;;;;;9.60;2.03;;;18.00;37.10;;;;;;5045647;28;20052;-40
2023/05/18 12:22:14;;;;;;;9.13;1.98;;;18.00;38.20;;;;;;5045645;28;20424;-42
2023/05/18 12:24:43;;;;;;;9.15;2.00;;;18.00;37.40;;;;;;5042556;28;20044;-41
2023/05/18 12:27:11;;;;;;;9.40;2.05;;;18.10;37.90;;;;;;5044868;28;20416;-42
2023/05/18 12:29:40;;;;;;;9.10;2.28;;;18.10;37.50;;;;;;5044644;28;20045;-39
2023/05/18 12:32:09;;;;;;;6.88;1.70;;;18.10;37.10;;;;;;5042486;28;20527;-41
2023/05/18 12:34:37;;;;;;;6.82;1.90;;;18.10;38.40;;;;;;5044677;28;20599;-40
2023/05/18 12:37:05;;;;;;;9.68;1.98;;;18.20;38.70;;;;;;5042703;28;20068;-40
2023/05/18 12:39:34;;;;;;;4.80;1.80;;;18.30;38.70;;;;;;5044000;28;20625;-42
2023/05/18 12:42:11;;;;;;;6.20;1.98;;;18.30;38.70;;;;;;5044084;28;20075;-43
2023/05/18 12:44:39;;;;;;;6.70;2.00;;;18.40;38.00;;;;;;5043793;28;20052;-43
2023/05/18 12:47:06;;;;;;;10.07;1.85;;;18.40;37.80;;;;;;5041823;28;20045;-41
2023/05/18 12:49:38;;;;;;;6.47;1.52;;;18.50;37.80;;;;;;5043717;28;20072;-42
2023/05/18 12:52:10;;;;;;;8.18;1.63;;;18.50;37.60;;;;;;5043171;28;20495;-43
2023/05/18 12:54:53;;;;;;;7.78;1.58;;;18.50;37.70;;;;;;5044498;28;20068;-43